Аэропорт: Алматы. Алма-Ата

ICAO: UAAA

METAR:
2024-07-24 14:30:00
UAAA 241430Z 09003MPS 9999 FEW050CB SCT100 29/15 Q1002 NOSIG
TAF:
2024-07-24 11:04:00
TAF UAAA 241104Z 2412/2512 17003MPS 9999 SCT050CB BKN100 TX35/2510Z TN23/2501Z 
  TEMPO 2412/2414 03003G08MPS 
  TEMPO 2414/2422 22004G09MPS 
  BECMG 2502/2503 35003MPS FEW050CB SCT100 
  TEMPO 2505/2512 05003G09MPS